Aviation Digital Data Service (ADDS)

Output produced by METARs form (0403 UTC 30 July 2015)
found at http://aviationweather.gov/adds/metars/
 
KARA 300353Z AUTO 00000KT 10SM FEW070 27/23 A3003 RMK AO2 SLP168 T02720233